sensor_id;sensor_type;location;lat;lon;timestamp;pressure;altitude;pressure_sealevel;temperature;humidity
39773;BME280;25451;51.960;6.250;2022-08-19T00:01:46;101219.75;;;21.34;64.14
39773;BME280;25451;51.960;6.250;2022-08-19T00:04:14;101209.16;;;21.31;64.36
39773;BME280;25451;51.960;6.250;2022-08-19T00:06:42;101200.59;;;21.22;64.32
39773;BME280;25451;51.960;6.250;2022-08-19T00:09:11;101213.72;;;21.27;64.29
39773;BME280;25451;51.960;6.250;2022-08-19T00:11:38;101207.91;;;21.23;64.24
39773;BME280;25451;51.960;6.250;2022-08-19T00:14:05;101202.47;;;21.13;64.19
39773;BME280;25451;51.960;6.250;2022-08-19T00:16:31;101214.75;;;21.17;64.22
39773;BME280;25451;51.960;6.250;2022-08-19T00:18:57;101214.75;;;21.17;64.24
39773;BME280;25451;51.960;6.250;2022-08-19T00:21:23;101209.72;;;21.14;64.30
39773;BME280;25451;51.960;6.250;2022-08-19T00:23:49;101213.16;;;21.11;64.34
39773;BME280;25451;51.960;6.250;2022-08-19T00:26:14;101205.84;;;21.10;64.40
39773;BME280;25451;51.960;6.250;2022-08-19T00:28:40;101205.97;;;21.05;64.33
39773;BME280;25451;51.960;6.250;2022-08-19T00:31:07;101205.13;;;21.05;64.68
39773;BME280;25451;51.960;6.250;2022-08-19T00:33:34;101211.31;;;21.02;64.41
39773;BME280;25451;51.960;6.250;2022-08-19T00:36:01;101207.13;;;20.99;64.34
39773;BME280;25451;51.960;6.250;2022-08-19T00:38:27;101202.72;;;20.93;64.51
39773;BME280;25451;51.960;6.250;2022-08-19T00:40:53;101215.63;;;20.94;64.44
39773;BME280;25451;51.960;6.250;2022-08-19T00:43:20;101211.75;;;20.90;64.50
39773;BME280;25451;51.960;6.250;2022-08-19T00:45:46;101209.03;;;20.85;64.42
39773;BME280;25451;51.960;6.250;2022-08-19T00:48:12;101205.47;;;20.80;64.48
39773;BME280;25451;51.960;6.250;2022-08-19T00:50:39;101213.28;;;20.83;64.63
39773;BME280;25451;51.960;6.250;2022-08-19T00:53:10;101195.22;;;20.70;64.65
39773;BME280;25451;51.960;6.250;2022-08-19T00:55:37;101201.38;;;20.72;64.80
39773;BME280;25451;51.960;6.250;2022-08-19T00:58:07;101206.47;;;20.70;64.87
39773;BME280;25451;51.960;6.250;2022-08-19T01:00:34;101194.22;;;20.61;64.78
39773;BME280;25451;51.960;6.250;2022-08-19T01:03:07;101202.59;;;20.66;64.90
39773;BME280;25451;51.960;6.250;2022-08-19T01:05:32;101199.03;;;20.60;65.01
39773;BME280;25451;51.960;6.250;2022-08-19T01:08:00;101219.09;;;20.67;65.02
39773;BME280;25451;51.960;6.250;2022-08-19T01:10:28;101206.50;;;20.65;65.05
39773;BME280;25451;51.960;6.250;2022-08-19T01:12:55;101213.59;;;20.62;65.11
39773;BME280;25451;51.960;6.250;2022-08-19T01:15:24;101212.22;;;20.60;65.22
39773;BME280;25451;51.960;6.250;2022-08-19T01:17:53;101200.84;;;20.51;65.10
39773;BME280;25451;51.960;6.250;2022-08-19T01:20:22;101214.78;;;20.56;65.07
39773;BME280;25451;51.960;6.250;2022-08-19T01:22:50;101194.38;;;20.51;65.24
39773;BME280;25451;51.960;6.250;2022-08-19T01:25:20;101211.19;;;20.51;65.51
39773;BME280;25451;51.960;6.250;2022-08-19T01:27:49;101210.66;;;20.49;65.64
39773;BME280;25451;51.960;6.250;2022-08-19T01:30:19;101212.94;;;20.47;65.59
39773;BME280;25451;51.960;6.250;2022-08-19T01:32:45;101207.41;;;20.42;65.86
39773;BME280;25451;51.960;6.250;2022-08-19T01:35:12;101204.09;;;20.40;65.74
39773;BME280;25451;51.960;6.250;2022-08-19T01:37:54;101208.63;;;20.36;65.91
39773;BME280;25451;51.960;6.250;2022-08-19T01:40:21;101196.34;;;20.32;65.93
39773;BME280;25451;51.960;6.250;2022-08-19T01:42:49;101205.28;;;20.34;65.99
39773;BME280;25451;51.960;6.250;2022-08-19T01:45:15;101213.44;;;20.30;66.00
39773;BME280;25451;51.960;6.250;2022-08-19T01:47:41;101211.56;;;20.26;66.05
39773;BME280;25451;51.960;6.250;2022-08-19T01:50:08;101223.31;;;20.28;66.24
39773;BME280;25451;51.960;6.250;2022-08-19T01:52:41;101223.31;;;20.28;66.27
39773;BME280;25451;51.960;6.250;2022-08-19T01:55:09;101221.63;;;20.27;66.29
39773;BME280;25451;51.960;6.250;2022-08-19T01:57:37;101212.44;;;20.21;66.08
39773;BME280;25451;51.960;6.250;2022-08-19T02:00:08;101216.38;;;20.20;66.36
39773;BME280;25451;51.960;6.250;2022-08-19T02:02:33;101212.16;;;20.23;66.23
39773;BME280;25451;51.960;6.250;2022-08-19T02:04:59;101214.41;;;20.21;66.34
39773;BME280;25451;51.960;6.250;2022-08-19T02:07:24;101205.22;;;20.15;66.25
39773;BME280;25451;51.960;6.250;2022-08-19T02:09:49;101223.13;;;20.19;66.29
39773;BME280;25451;51.960;6.250;2022-08-19T02:12:15;101211.34;;;20.17;66.20
39773;BME280;25451;51.960;6.250;2022-08-19T02:14:41;101210.50;;;20.17;66.36
39773;BME280;25451;51.960;6.250;2022-08-19T02:17:06;101211.63;;;20.16;66.31
39773;BME280;25451;51.960;6.250;2022-08-19T02:19:32;101207.22;;;20.10;66.40
39773;BME280;25451;51.960;6.250;2022-08-19T02:21:58;101218.44;;;20.10;66.29
39773;BME280;25451;51.960;6.250;2022-08-19T02:24:25;101227.38;;;20.12;66.29
39773;BME280;25451;51.960;6.250;2022-08-19T02:26:51;101217.31;;;20.11;66.28
39773;BME280;25451;51.960;6.250;2022-08-19T02:29:16;101211.47;;;20.07;66.14
39773;BME280;25451;51.960;6.250;2022-08-19T02:31:41;101217.88;;;20.08;66.24
39773;BME280;25451;51.960;6.250;2022-08-19T02:34:07;101210.94;;;20.05;66.33
39773;BME280;25451;51.960;6.250;2022-08-19T02:36:32;101200.66;;;19.96;66.18
39773;BME280;25451;51.960;6.250;2022-08-19T02:38:58;101207.66;;;19.98;66.31
39773;BME280;25451;51.960;6.250;2022-08-19T02:41:27;101216.28;;;20.02;66.30
39773;BME280;25451;51.960;6.250;2022-08-19T02:43:54;101204.31;;;19.96;66.39
39773;BME280;25451;51.960;6.250;2022-08-19T02:46:25;101206.88;;;19.93;66.30
39773;BME280;25451;51.960;6.250;2022-08-19T02:48:54;101219.47;;;19.95;66.26
39773;BME280;25451;51.960;6.250;2022-08-19T02:51:22;101226.50;;;19.93;66.30
39773;BME280;25451;51.960;6.250;2022-08-19T02:53:48;101220.03;;;19.92;66.41
39773;BME280;25451;51.960;6.250;2022-08-19T02:56:14;101215.31;;;19.88;66.33
39773;BME280;25451;51.960;6.250;2022-08-19T02:58:39;101214.31;;;19.78;66.45
39773;BME280;25451;51.960;6.250;2022-08-19T03:01:05;101222.38;;;19.85;66.53
39773;BME280;25451;51.960;6.250;2022-08-19T03:03:31;101221.84;;;19.83;66.46
39773;BME280;25451;51.960;6.250;2022-08-19T03:06:10;101214.09;;;19.75;66.52
39773;BME280;25451;51.960;6.250;2022-08-19T03:08:39;101221.34;;;19.76;66.55
39773;BME280;25451;51.960;6.250;2022-08-19T03:11:04;101223.28;;;19.75;66.52
39773;BME280;25451;51.960;6.250;2022-08-19T03:13:30;101212.69;;;19.72;66.62
39773;BME280;25451;51.960;6.250;2022-08-19T03:15:56;101212.16;;;19.70;66.54
39773;BME280;25451;51.960;6.250;2022-08-19T03:18:22;101210.25;;;19.66;66.76
39773;BME280;25451;51.960;6.250;2022-08-19T03:20:50;101219.75;;;19.65;66.64
39773;BME280;25451;51.960;6.250;2022-08-19T03:23:18;101219.53;;;19.61;66.76
39773;BME280;25451;51.960;6.250;2022-08-19T03:25:46;101215.34;;;19.59;66.77
39773;BME280;25451;51.960;6.250;2022-08-19T03:28:12;101219.53;;;19.61;66.64
39773;BME280;25451;51.960;6.250;2022-08-19T03:30:39;101215.66;;;19.57;66.82
39773;BME280;25451;51.960;6.250;2022-08-19T03:33:07;101216.50;;;19.58;66.75
39773;BME280;25451;51.960;6.250;2022-08-19T03:35:33;101219.06;;;19.54;66.81
39773;BME280;25451;51.960;6.250;2022-08-19T03:38:00;101215.44;;;19.49;67.01
39773;BME280;25451;51.960;6.250;2022-08-19T03:40:25;101209.91;;;19.44;66.87
39773;BME280;25451;51.960;6.250;2022-08-19T03:42:51;101227.19;;;19.51;66.91
39773;BME280;25451;51.960;6.250;2022-08-19T03:45:16;101219.41;;;19.43;66.88
39773;BME280;25451;51.960;6.250;2022-08-19T03:47:42;101227.00;;;19.42;67.02
39773;BME280;25451;51.960;6.250;2022-08-19T03:50:07;101222.28;;;19.38;67.06
39773;BME280;25451;51.960;6.250;2022-08-19T03:52:34;101231.47;;;19.43;67.04
39773;BME280;25451;51.960;6.250;2022-08-19T03:55:01;101230.91;;;19.41;67.03
39773;BME280;25451;51.960;6.250;2022-08-19T03:57:26;101226.47;;;19.40;66.94
39773;BME280;25451;51.960;6.250;2022-08-19T03:59:52;101210.28;;;19.32;66.97
39773;BME280;25451;51.960;6.250;2022-08-19T04:02:17;101227.34;;;19.36;67.15
39773;BME280;25451;51.960;6.250;2022-08-19T04:04:43;101218.94;;;19.31;67.04
39773;BME280;25451;51.960;6.250;2022-08-19T04:07:09;101222.56;;;19.31;67.18
39773;BME280;25451;51.960;6.250;2022-08-19T04:09:35;101224.84;;;19.29;66.86
39773;BME280;25451;51.960;6.250;2022-08-19T04:12:04;101210.59;;;19.26;67.05
39773;BME280;25451;51.960;6.250;2022-08-19T04:14:30;101219.25;;;19.24;67.20
39773;BME280;25451;51.960;6.250;2022-08-19T04:16:58;101223.78;;;19.20;67.14
39773;BME280;25451;51.960;6.250;2022-08-19T04:19:23;101224.06;;;19.19;67.01
39773;BME280;25451;51.960;6.250;2022-08-19T04:21:51;101215.44;;;19.15;66.92
39773;BME280;25451;51.960;6.250;2022-08-19T04:24:17;101215.47;;;19.10;67.04
39773;BME280;25451;51.960;6.250;2022-08-19T04:26:43;101201.78;;;19.09;67.07
39773;BME280;25451;51.960;6.250;2022-08-19T04:29:15;101205.72;;;19.08;67.09
39773;BME280;25451;51.960;6.250;2022-08-19T04:31:43;101209.94;;;19.05;66.98
39773;BME280;25451;51.960;6.250;2022-08-19T04:34:11;101212.19;;;19.03;66.99
39773;BME280;25451;51.960;6.250;2022-08-19T04:36:39;101210.78;;;19.00;67.07
39773;BME280;25451;51.960;6.250;2022-08-19T04:39:09;101201.91;;;18.93;67.14
39773;BME280;25451;51.960;6.250;2022-08-19T04:41:35;101193.53;;;18.88;67.11
39773;BME280;25451;51.960;6.250;2022-08-19T04:44:20;101217.84;;;18.93;67.19
39773;BME280;25451;51.960;6.250;2022-08-19T04:46:47;101205.03;;;18.87;67.36
39773;BME280;25451;51.960;6.250;2022-08-19T04:49:14;101204.44;;;18.90;67.13
39773;BME280;25451;51.960;6.250;2022-08-19T04:51:41;101205.03;;;18.87;67.01
39773;BME280;25451;51.960;6.250;2022-08-19T04:54:07;101209.53;;;18.83;67.15
39773;BME280;25451;51.960;6.250;2022-08-19T04:56:32;101213.72;;;18.80;67.00
39773;BME280;25451;51.960;6.250;2022-08-19T04:58:59;101222.44;;;18.79;67.09
39773;BME280;25451;51.960;6.250;2022-08-19T05:01:29;101220.44;;;18.79;66.99
39773;BME280;25451;51.960;6.250;2022-08-19T05:03:55;101216.84;;;18.79;67.10
39773;BME280;25451;51.960;6.250;2022-08-19T05:06:22;101209.00;;;18.76;67.07
39773;BME280;25451;51.960;6.250;2022-08-19T05:08:49;101212.66;;;18.76;67.21
39773;BME280;25451;51.960;6.250;2022-08-19T05:11:15;101215.75;;;18.75;67.30
39773;BME280;25451;51.960;6.250;2022-08-19T05:13:43;101214.06;;;18.74;67.18
39773;BME280;25451;51.960;6.250;2022-08-19T05:16:10;101209.31;;;18.74;67.09
39773;BME280;25451;51.960;6.250;2022-08-19T05:18:37;101210.16;;;18.70;67.16
39773;BME280;25451;51.960;6.250;2022-08-19T05:21:21;101218.84;;;18.68;67.09
39773;BME280;25451;51.960;6.250;2022-08-19T05:24:06;101215.47;;;18.71;67.17
39773;BME280;25451;51.960;6.250;2022-08-19T05:26:36;101221.06;;;18.71;67.30
39773;BME280;25451;51.960;6.250;2022-08-19T05:29:02;101209.06;;;18.71;67.19
39773;BME280;25451;51.960;6.250;2022-08-19T05:31:28;101211.00;;;18.70;67.12
39773;BME280;25451;51.960;6.250;2022-08-19T05:33:53;101204.03;;;18.68;67.17
39773;BME280;25451;51.960;6.250;2022-08-19T05:36:19;101211.00;;;18.70;67.12
39773;BME280;25451;51.960;6.250;2022-08-19T05:38:45;101213.81;;;18.70;67.10
39773;BME280;25451;51.960;6.250;2022-08-19T05:41:12;101211.00;;;18.70;66.98
39773;BME280;25451;51.960;6.250;2022-08-19T05:43:38;101212.41;;;18.73;66.94
39773;BME280;25451;51.960;6.250;2022-08-19T05:46:05;101210.72;;;18.72;67.05
39773;BME280;25451;51.960;6.250;2022-08-19T05:48:34;101212.41;;;18.73;67.09
39773;BME280;25451;51.960;6.250;2022-08-19T05:51:06;101210.16;;;18.75;66.90
39773;BME280;25451;51.960;6.250;2022-08-19T05:53:32;101217.06;;;18.82;66.87
39773;BME280;25451;51.960;6.250;2022-08-19T05:56:10;101225.72;;;18.86;66.81
39773;BME280;25451;51.960;6.250;2022-08-19T05:58:37;101229.91;;;18.88;66.72
39773;BME280;25451;51.960;6.250;2022-08-19T06:01:04;101214.81;;;18.84;66.85
39773;BME280;25451;51.960;6.250;2022-08-19T06:03:35;101225.09;;;18.94;66.96
39773;BME280;25451;51.960;6.250;2022-08-19T06:06:03;101214.50;;;18.91;66.91
39773;BME280;25451;51.960;6.250;2022-08-19T06:08:29;101215.31;;;18.96;66.91
39773;BME280;25451;51.960;6.250;2022-08-19T06:10:55;101217.22;;;19.01;67.13
39773;BME280;25451;51.960;6.250;2022-08-19T06:13:21;101216.09;;;19.02;67.06
39773;BME280;25451;51.960;6.250;2022-08-19T06:15:47;101201.56;;;19.00;67.34
39773;BME280;25451;51.960;6.250;2022-08-19T06:18:13;101210.22;;;19.03;67.27
39773;BME280;25451;51.960;6.250;2022-08-19T06:20:40;101220.50;;;19.13;67.39
39773;BME280;25451;51.960;6.250;2022-08-19T06:23:05;101215.44;;;19.15;67.27
39773;BME280;25451;51.960;6.250;2022-08-19T06:25:31;101214.59;;;19.15;67.46
39773;BME280;25451;51.960;6.250;2022-08-19T06:27:56;101224.06;;;19.24;67.39
39773;BME280;25451;51.960;6.250;2022-08-19T06:30:22;101221.53;;;19.22;67.24
39773;BME280;25451;51.960;6.250;2022-08-19T06:32:47;101231.53;;;19.28;67.49
39773;BME280;25451;51.960;6.250;2022-08-19T06:35:13;101230.13;;;19.36;67.47
39773;BME280;25451;51.960;6.250;2022-08-19T06:37:39;101220.03;;;19.40;67.67
39773;BME280;25451;51.960;6.250;2022-08-19T06:40:06;101220.25;;;19.43;67.83
39773;BME280;25451;51.960;6.250;2022-08-19T06:42:34;101231.44;;;19.48;67.55
39773;BME280;25451;51.960;6.250;2022-08-19T06:45:00;101221.00;;;19.54;67.52
39773;BME280;25451;51.960;6.250;2022-08-19T06:47:28;101238.28;;;19.61;67.66
39773;BME280;25451;51.960;6.250;2022-08-19T06:49:55;101243.84;;;19.66;67.82
39773;BME280;25451;51.960;6.250;2022-08-19T06:52:25;101248.03;;;19.68;67.81
39773;BME280;25451;51.960;6.250;2022-08-19T06:54:50;101249.34;;;19.76;68.23
39773;BME280;25451;51.960;6.250;2022-08-19T06:57:15;101240.66;;;19.77;67.97
39773;BME280;25451;51.960;6.250;2022-08-19T06:59:41;101252.28;;;19.90;68.16
39773;BME280;25451;51.960;6.250;2022-08-19T07:02:06;101255.59;;;19.97;68.19
39773;BME280;25451;51.960;6.250;2022-08-19T07:04:34;101260.00;;;20.03;68.43
39773;BME280;25451;51.960;6.250;2022-08-19T07:07:08;101254.63;;;20.06;68.36
39773;BME280;25451;51.960;6.250;2022-08-19T07:09:38;101261.81;;;20.17;68.44
39773;BME280;25451;51.960;6.250;2022-08-19T07:12:06;101260.03;;;20.26;68.47
39773;BME280;25451;51.960;6.250;2022-08-19T07:14:32;101256.66;;;20.29;68.49
39773;BME280;25451;51.960;6.250;2022-08-19T07:17:00;101260.16;;;20.40;68.43
39773;BME280;25451;51.960;6.250;2022-08-19T07:19:26;101254.16;;;20.46;68.48
39773;BME280;25451;51.960;6.250;2022-08-19T07:21:53;101262.22;;;20.53;68.63
39773;BME280;25451;51.960;6.250;2022-08-19T07:24:20;101227.63;;;20.39;68.59
39773;BME280;25451;51.960;6.250;2022-08-19T07:26:49;101245.78;;;20.65;68.87
39773;BME280;25451;51.960;6.250;2022-08-19T07:29:16;101259.09;;;20.78;68.85
39773;BME280;25451;51.960;6.250;2022-08-19T07:31:42;101264.03;;;20.86;68.98
39773;BME280;25451;51.960;6.250;2022-08-19T07:34:09;101252.66;;;20.96;69.15
39773;BME280;25451;51.960;6.250;2022-08-19T07:36:38;101254.81;;;21.04;69.17
39773;BME280;25451;51.960;6.250;2022-08-19T07:39:08;101246.91;;;21.06;69.26
39773;BME280;25451;51.960;6.250;2022-08-19T07:41:35;101269.66;;;21.23;69.21
39773;BME280;25451;51.960;6.250;2022-08-19T07:44:02;101263.03;;;21.33;69.16
39773;BME280;25451;51.960;6.250;2022-08-19T07:46:32;101259.34;;;21.37;69.17
39773;BME280;25451;51.960;6.250;2022-08-19T07:48:58;101273.34;;;21.56;68.94
39773;BME280;25451;51.960;6.250;2022-08-19T07:51:26;101278.16;;;21.69;69.03
39773;BME280;25451;51.960;6.250;2022-08-19T07:53:52;101263.41;;;21.77;68.88
39773;BME280;25451;51.960;6.250;2022-08-19T07:56:19;101262.13;;;21.88;68.82
39773;BME280;25451;51.960;6.250;2022-08-19T07:58:46;101281.59;;;22.12;68.73
39773;BME280;25451;51.960;6.250;2022-08-19T08:01:21;101275.78;;;22.22;68.60
39773;BME280;25451;51.960;6.250;2022-08-19T08:03:49;101275.88;;;22.44;68.46
39773;BME280;25451;51.960;6.250;2022-08-19T08:06:33;101278.09;;;22.61;68.19
39773;BME280;25451;51.960;6.250;2022-08-19T08:09:22;101283.94;;;22.78;67.95
39773;BME280;25451;51.960;6.250;2022-08-19T08:11:53;101288.06;;;22.94;68.06
39773;BME280;25451;51.960;6.250;2022-08-19T08:14:23;101290.22;;;23.11;67.75
39773;BME280;25451;51.960;6.250;2022-08-19T08:16:49;101283.53;;;23.20;67.48
39773;BME280;25451;51.960;6.250;2022-08-19T08:19:21;101301.00;;;23.44;67.20
39773;BME280;25451;51.960;6.250;2022-08-19T08:21:48;101303.44;;;23.59;67.39
39773;BME280;25451;51.960;6.250;2022-08-19T08:24:14;101302.22;;;23.74;67.26
39773;BME280;25451;51.960;6.250;2022-08-19T08:26:41;101301.81;;;23.89;66.83
39773;BME280;25451;51.960;6.250;2022-08-19T08:29:07;101304.38;;;23.99;66.66
39773;BME280;25451;51.960;6.250;2022-08-19T08:31:35;101319.13;;;24.18;66.31
39773;BME280;25451;51.960;6.250;2022-08-19T08:34:00;101298.06;;;24.24;66.36
39773;BME280;25451;51.960;6.250;2022-08-19T08:36:26;101316.28;;;24.49;65.84
39773;BME280;25451;51.960;6.250;2022-08-19T08:38:52;101318.13;;;24.62;66.05
39773;BME280;25451;51.960;6.250;2022-08-19T08:41:31;101313.91;;;24.73;65.77
39773;BME280;25451;51.960;6.250;2022-08-19T08:44:00;101311.28;;;24.85;65.47
39773;BME280;25451;51.960;6.250;2022-08-19T08:46:43;101311.47;;;24.97;64.98
39773;BME280;25451;51.960;6.250;2022-08-19T08:49:20;101312.50;;;25.10;64.56
39773;BME280;25451;51.960;6.250;2022-08-19T08:51:54;101310.69;;;25.22;64.33
39773;BME280;25451;51.960;6.250;2022-08-19T08:54:25;101323.81;;;25.35;63.72
39773;BME280;25451;51.960;6.250;2022-08-19T08:56:54;101318.72;;;25.46;63.33
39773;BME280;25451;51.960;6.250;2022-08-19T08:59:24;101314.38;;;25.57;63.20
39773;BME280;25451;51.960;6.250;2022-08-19T09:01:51;101317.38;;;25.69;62.93
39773;BME280;25451;51.960;6.250;2022-08-19T09:04:16;101318.38;;;25.82;62.67
39773;BME280;25451;51.960;6.250;2022-08-19T09:06:55;101319.66;;;25.93;62.21
39773;BME280;25451;51.960;6.250;2022-08-19T09:09:29;101321.78;;;26.04;62.00
39773;BME280;25451;51.960;6.250;2022-08-19T09:12:22;101299.03;;;26.09;61.49
39773;BME280;25451;51.960;6.250;2022-08-19T09:14:57;101308.13;;;26.23;60.99
39773;BME280;25451;51.960;6.250;2022-08-19T09:17:25;101301.44;;;26.37;60.96
39773;BME280;25451;51.960;6.250;2022-08-19T09:22:33;101304.81;;;26.59;59.92
39773;BME280;25451;51.960;6.250;2022-08-19T09:24:59;101307.81;;;26.71;59.77
39773;BME280;25451;51.960;6.250;2022-08-19T09:27:26;101305.38;;;26.82;59.48
39773;BME280;25451;51.960;6.250;2022-08-19T09:29:52;101309.50;;;26.93;59.37
39773;BME280;25451;51.960;6.250;2022-08-19T09:32:19;101312.91;;;27.07;59.33
39773;BME280;25451;51.960;6.250;2022-08-19T09:34:45;101304.69;;;27.14;58.83
39773;BME280;25451;51.960;6.250;2022-08-19T09:37:10;101306.44;;;27.27;58.64
39773;BME280;25451;51.960;6.250;2022-08-19T09:39:37;101295.69;;;27.33;58.31
39773;BME280;25451;51.960;6.250;2022-08-19T09:42:03;101297.81;;;27.44;58.20
39773;BME280;25451;51.960;6.250;2022-08-19T09:44:29;101308.53;;;27.59;57.64
39773;BME280;25451;51.960;6.250;2022-08-19T09:46:55;101304.44;;;27.69;57.16
39773;BME280;25451;51.960;6.250;2022-08-19T09:49:21;101299.84;;;27.76;56.51
39773;BME280;25451;51.960;6.250;2022-08-19T09:51:49;101304.81;;;27.79;56.21
39773;BME280;25451;51.960;6.250;2022-08-19T09:54:15;101300.38;;;27.90;55.92
39773;BME280;25451;51.960;6.250;2022-08-19T09:56:40;101311.69;;;27.99;55.26
39773;BME280;25451;51.960;6.250;2022-08-19T09:59:05;101306.59;;;28.05;55.25
39773;BME280;25451;51.960;6.250;2022-08-19T10:01:31;101305.47;;;28.18;54.82
39773;BME280;25451;51.960;6.250;2022-08-19T10:03:59;101315.88;;;28.26;54.19
39773;BME280;25451;51.960;6.250;2022-08-19T10:06:27;101302.16;;;28.28;53.52
39773;BME280;25451;51.960;6.250;2022-08-19T10:08:55;101312.72;;;28.39;53.43
39773;BME280;25451;51.960;6.250;2022-08-19T10:11:21;101303.50;;;28.42;53.33
39773;BME280;25451;51.960;6.250;2022-08-19T10:13:47;101316.88;;;28.54;53.22
39773;BME280;25451;51.960;6.250;2022-08-19T10:16:16;101312.75;;;28.63;53.20
39773;BME280;25451;51.960;6.250;2022-08-19T10:18:42;101309.81;;;28.72;52.72
39773;BME280;25451;51.960;6.250;2022-08-19T10:21:11;101313.38;;;28.81;52.13
39773;BME280;25451;51.960;6.250;2022-08-19T10:23:38;101306.97;;;28.84;51.28
39773;BME280;25451;51.960;6.250;2022-08-19T10:26:07;101323.06;;;28.92;50.76
39773;BME280;25451;51.960;6.250;2022-08-19T10:28:36;101314.66;;;28.96;50.31
39773;BME280;25451;51.960;6.250;2022-08-19T10:31:09;101308.72;;;29.01;50.85
39773;BME280;25451;51.960;6.250;2022-08-19T10:33:36;101310.03;;;29.03;50.08
39773;BME280;25451;51.960;6.250;2022-08-19T10:36:07;101317.63;;;29.11;49.86
39773;BME280;25451;51.960;6.250;2022-08-19T10:38:33;101308.72;;;29.13;49.52
39773;BME280;25451;51.960;6.250;2022-08-19T10:41:14;101300.09;;;29.21;49.51
39773;BME280;25451;51.960;6.250;2022-08-19T10:43:40;101300.19;;;29.25;49.03
39773;BME280;25451;51.960;6.250;2022-08-19T10:46:08;101304.06;;;29.32;49.05
39773;BME280;25451;51.960;6.250;2022-08-19T10:48:34;101311.16;;;29.38;48.50
39773;BME280;25451;51.960;6.250;2022-08-19T10:51:00;101307.72;;;29.45;48.75
39773;BME280;25451;51.960;6.250;2022-08-19T10:53:44;101311.59;;;29.52;48.59
39773;BME280;25451;51.960;6.250;2022-08-19T10:56:09;101306.84;;;29.57;48.77
39773;BME280;25451;51.960;6.250;2022-08-19T10:58:53;101311.59;;;29.65;48.56
39773;BME280;25451;51.960;6.250;2022-08-19T11:01:19;101303.25;;;29.72;48.60
39773;BME280;25451;51.960;6.250;2022-08-19T11:03:44;101303.25;;;29.72;48.31
39773;BME280;25451;51.960;6.250;2022-08-19T11:06:11;101313.31;;;29.81;48.79
39773;BME280;25451;51.960;6.250;2022-08-19T11:08:37;101299.19;;;29.85;48.68
39773;BME280;25451;51.960;6.250;2022-08-19T11:11:03;101307.44;;;29.90;48.29
39773;BME280;25451;51.960;6.250;2022-08-19T11:13:30;101305.06;;;29.92;48.35
39773;BME280;25451;51.960;6.250;2022-08-19T11:15:57;101302.59;;;29.90;48.69
39773;BME280;25451;51.960;6.250;2022-08-19T11:18:23;101308.84;;;29.96;48.42
39773;BME280;25451;51.960;6.250;2022-08-19T11:20:48;101301.13;;;29.96;48.81
39773;BME280;25451;51.960;6.250;2022-08-19T11:23:14;101299.13;;;29.97;49.04
39773;BME280;25451;51.960;6.250;2022-08-19T11:25:39;101307.38;;;30.02;49.20
39773;BME280;25451;51.960;6.250;2022-08-19T11:28:04;101314.38;;;30.04;49.17
39773;BME280;25451;51.960;6.250;2022-08-19T11:30:30;101306.41;;;30.10;48.99
39773;BME280;25451;51.960;6.250;2022-08-19T11:32:55;101296.22;;;30.09;49.19
39773;BME280;25451;51.960;6.250;2022-08-19T11:35:20;101313.22;;;30.21;48.93
39773;BME280;25451;51.960;6.250;2022-08-19T11:37:48;101309.16;;;30.22;48.84
39773;BME280;25451;51.960;6.250;2022-08-19T11:40:13;101307.53;;;30.21;48.73
39773;BME280;25451;51.960;6.250;2022-08-19T11:42:39;101307.53;;;30.21;48.81
39773;BME280;25451;51.960;6.250;2022-08-19T11:45:26;101309.41;;;30.29;48.08
39773;BME280;25451;51.960;6.250;2022-08-19T11:47:53;101317.94;;;30.29;47.89
39773;BME280;25451;51.960;6.250;2022-08-19T11:50:19;101301.91;;;30.24;47.39
39773;BME280;25451;51.960;6.250;2022-08-19T11:52:44;101300.47;;;30.31;47.00
39773;BME280;25451;51.960;6.250;2022-08-19T11:55:12;101299.31;;;30.32;46.86
39773;BME280;25451;51.960;6.250;2022-08-19T11:57:38;101301.88;;;30.37;46.74
39773;BME280;25451;51.960;6.250;2022-08-19T12:00:05;101297.00;;;30.37;46.10
39773;BME280;25451;51.960;6.250;2022-08-19T12:02:32;101297.47;;;30.39;46.06
39773;BME280;25451;51.960;6.250;2022-08-19T12:04:57;101301.59;;;30.42;45.69
39773;BME280;25451;51.960;6.250;2022-08-19T12:07:22;101306.94;;;30.43;45.55
39773;BME280;25451;51.960;6.250;2022-08-19T12:09:49;101293.88;;;30.42;45.38
39773;BME280;25451;51.960;6.250;2022-08-19T12:12:14;101303.63;;;30.41;45.85
39773;BME280;25451;51.960;6.250;2022-08-19T12:14:40;101293.69;;;30.35;45.03
39773;BME280;25451;51.960;6.250;2022-08-19T12:17:05;101293.00;;;30.26;44.75
39773;BME280;25451;51.960;6.250;2022-08-19T12:19:33;101295.84;;;30.26;44.73
39773;BME280;25451;51.960;6.250;2022-08-19T12:22:00;101292.63;;;30.12;44.47
39773;BME280;25451;51.960;6.250;2022-08-19T12:24:30;101300.34;;;30.11;44.36
39773;BME280;25451;51.960;6.250;2022-08-19T12:26:56;101304.16;;;30.03;43.99
39773;BME280;25451;51.960;6.250;2022-08-19T12:29:23;101299.84;;;29.94;44.31
39773;BME280;25451;51.960;6.250;2022-08-19T12:31:53;101302.97;;;29.89;44.43
39773;BME280;25451;51.960;6.250;2022-08-19T12:34:19;101302.03;;;29.85;45.07
39773;BME280;25451;51.960;6.250;2022-08-19T12:36:45;101289.81;;;29.84;44.76
39773;BME280;25451;51.960;6.250;2022-08-19T12:39:10;101280.97;;;29.74;44.73
39773;BME280;25451;51.960;6.250;2022-08-19T12:41:36;101286.41;;;29.79;45.06
39773;BME280;25451;51.960;6.250;2022-08-19T12:44:02;101287.97;;;29.76;44.96
39773;BME280;25451;51.960;6.250;2022-08-19T12:46:28;101280.47;;;29.72;44.61
39773;BME280;25451;51.960;6.250;2022-08-19T12:48:53;101282.66;;;29.63;44.72
39773;BME280;25451;51.960;6.250;2022-08-19T13:12:38;101243.50;;;28.68;45.73
39773;BME280;25451;51.960;6.250;2022-08-19T13:15:05;101259.50;;;28.73;45.65
39773;BME280;25451;51.960;6.250;2022-08-19T13:17:30;101261.28;;;28.77;45.95